Time;durP1;ratioP1;P1;durP2;ratioP2;P2;SDS_P1;SDS_P2;PMS_P1;PMS_P2;Temp;Humidity;BMP_temperature;BMP_pressure;BME280_temperature;BME280_humidity;BME280_pressure;Samples;Min_cycle;Max_cycle;Signal;HPM_P1;HPM_P2
2023/09/23 00:02:22;;;;;;;;;2.00;0.00;;;;;16.57;57.30;100699.22;5081197;27;45555;-73
2023/09/23 00:04:47;;;;;;;;;2.00;0.33;;;;;16.54;57.15;100679.88;5074585;27;45396;-71
2023/09/23 00:07:13;;;;;;;;;1.00;1.00;;;;;16.69;57.21;100699.81;5080561;27;45417;-71
2023/09/23 00:09:39;;;;;;;;;2.00;0.33;;;;;16.70;56.86;100695.38;5078789;27;46572;-73
2023/09/23 00:12:06;;;;;;;;;2.33;1.00;;;;;16.80;56.85;100712.81;5070841;27;46047;-71
2023/09/23 00:14:32;;;;;;;;;1.00;1.00;;;;;16.84;57.03;100714.47;5077934;27;45478;-72
2023/09/23 00:16:58;;;;;;;;;3.67;1.00;;;;;16.86;56.86;100709.13;5069377;27;45510;-72
2023/09/23 00:19:24;;;;;;;;;2.67;1.00;;;;;16.84;56.81;100710.94;5074882;27;45443;-72
2023/09/23 00:21:51;;;;;;;;;2.00;0.00;;;;;16.89;56.90;100717.84;5079556;27;45473;-73
2023/09/23 00:24:17;;;;;;;;;1.00;1.00;;;;;16.85;56.58;100715.34;5078313;27;46228;-72
2023/09/23 00:26:43;;;;;;;;;2.00;0.67;;;;;16.85;56.90;100723.28;5077465;27;45480;-72
2023/09/23 00:29:10;;;;;;;;;1.33;0.67;;;;;16.83;56.98;100722.44;5076961;27;45353;-73
2023/09/23 00:31:37;;;;;;;;;0.33;0.33;;;;;16.78;56.85;100727.81;5064267;27;45623;-72
2023/09/23 00:34:03;;;;;;;;;0.00;0.00;;;;;16.76;57.14;100729.63;5093050;27;45460;-73
2023/09/23 00:36:28;;;;;;;;;1.00;1.00;;;;;16.80;57.07;100736.63;5077403;27;45809;-71
2023/09/23 00:38:56;;;;;;;;;0.00;0.00;;;;;16.78;57.03;100733.09;5068115;27;46657;-73
2023/09/23 00:41:21;;;;;;;;;0.50;0.50;;;;;16.65;57.08;100721.91;5072160;27;45597;-72
2023/09/23 00:43:47;;;;;;;;;0.00;0.00;;;;;16.70;57.41;100745.63;5092900;27;45420;-72
2023/09/23 00:46:19;;;;;;;;;1.00;1.00;;;;;16.66;57.26;100731.63;5077604;27;45378;-72
2023/09/23 00:48:44;;;;;;;;;2.00;0.67;;;;;16.68;57.42;100737.75;5078737;27;46283;-71
2023/09/23 00:51:10;;;;;;;;;2.00;1.00;;;;;16.60;57.17;100715.88;5078754;27;45476;-70
2023/09/23 00:53:39;;;;;;;;;1.00;0.33;;;;;16.66;57.44;100747.47;5075881;27;45463;-72
2023/09/23 00:56:07;;;;;;;;;1.00;1.00;;;;;16.63;57.54;100736.09;5076372;27;45519;-71
2023/09/23 00:58:36;;;;;;;;;0.33;0.33;;;;;16.41;57.69;100715.44;5076953;27;46129;-71
2023/09/23 01:01:02;;;;;;;;;0.00;0.00;;;;;16.42;58.10;100740.09;5077392;27;45474;-68
2023/09/23 01:03:27;;;;;;;;;0.33;0.33;;;;;16.29;58.31;100740.34;5077114;27;45372;-70
2023/09/23 01:06:15;;;;;;;;;1.00;1.00;;;;;16.26;58.36;100739.56;5075792;27;45359;-73
2023/09/23 01:08:49;;;;;;;;;1.00;1.00;;;;;16.17;58.60;100735.34;5075115;28;46906;-70
2023/09/23 01:11:17;;;;;;;;;1.00;1.00;;;;;15.96;58.69;100701.44;5076933;27;45474;-71
2023/09/23 01:13:44;;;;;;;;;1.00;0.67;;;;;16.18;58.83;100733.56;5075000;27;45393;-72
2023/09/23 01:16:14;;;;;;;;;2.33;1.00;;;;;16.20;58.94;100739.69;5066260;28;45531;-72
2023/09/23 01:18:45;;;;;;;;;1.00;1.00;;;;;16.08;59.03;100717.03;5074253;27;45565;-71
2023/09/23 01:21:10;;;;;;;;;1.33;1.00;;;;;16.22;59.06;100740.53;5067576;27;45373;-67
2023/09/23 01:23:37;;;;;;;;;2.00;1.00;;;;;16.23;59.06;100744.91;5077785;27;45486;-70
2023/09/23 01:26:04;;;;;;;;;4.67;1.00;;;;;16.22;59.06;100745.81;5077671;27;46150;-71
2023/09/23 01:28:32;;;;;;;;;1.00;1.00;;;;;16.23;59.00;100751.06;5078120;27;45505;-68
2023/09/23 01:30:59;;;;;;;;;3.00;1.00;;;;;16.22;58.79;100741.38;5078740;27;45511;-70
2023/09/23 01:33:26;;;;;;;;;1.00;1.00;;;;;16.27;58.90;100741.28;5078026;27;45342;-71
2023/09/23 01:35:55;;;;;;;;;2.00;1.00;;;;;16.27;58.94;100742.16;5078207;27;45294;-69
2023/09/23 01:38:21;;;;;;;;;1.00;1.00;;;;;16.27;58.97;100738.66;5077600;27;45803;-70
2023/09/23 01:40:47;;;;;;;;;2.00;1.00;;;;;16.30;58.94;100746.50;5078217;27;45526;-71
2023/09/23 01:43:12;;;;;;;;;2.00;1.00;;;;;16.25;58.80;100733.41;5077826;27;45358;-72
2023/09/23 01:45:38;;;;;;;;;1.00;1.00;;;;;16.29;58.81;100742.13;5074461;28;45424;-66
2023/09/23 01:48:04;;;;;;;;;0.67;0.67;;;;;16.26;58.71;100736.94;5077415;28;45527;-72
2023/09/23 01:50:29;;;;;;;;;2.00;1.00;;;;;16.31;58.78;100741.19;5077899;28;45511;-72
2023/09/23 01:52:59;;;;;;;;;2.67;1.00;;;;;16.35;58.50;100754.34;5078044;28;45486;-66
2023/09/23 01:55:25;;;;;;;;;1.00;1.00;;;;;16.32;58.67;100752.63;5077688;28;45434;-67
2023/09/23 01:57:51;;;;;;;;;1.00;1.00;;;;;16.35;58.89;100765.81;5077959;27;45619;-66
2023/09/23 02:00:26;;;;;;;;;1.00;1.00;;;;;16.43;58.42;100766.50;5077435;28;45408;-69
2023/09/23 02:02:55;;;;;;;;;3.00;1.00;;;;;16.41;58.29;100759.50;5077432;28;45394;-72
2023/09/23 02:05:22;;;;;;;;;1.00;1.00;;;;;16.45;58.22;100758.53;5079747;27;45286;-72
2023/09/23 02:07:50;;;;;;;;;1.00;1.00;;;;;16.34;58.38;100748.19;5078537;27;45519;-72
2023/09/23 02:10:17;;;;;;;;;2.00;0.33;;;;;16.45;58.28;100775.28;5078369;27;45349;-70
2023/09/23 02:12:43;;;;;;;;;2.00;0.67;;;;;16.42;58.39;100775.34;5076621;28;45414;-71
2023/09/23 02:15:15;;;;;;;;;3.33;0.33;;;;;16.37;58.33;100757.81;5078157;27;45554;-71
2023/09/23 02:17:45;;;;;;;;;1.00;1.00;;;;;16.30;58.64;100759.72;5075627;28;46973;-68
2023/09/23 02:20:12;;;;;;;;;0.67;0.67;;;;;16.33;58.88;100768.47;5076077;28;45804;-67
2023/09/23 02:22:38;;;;;;;;;1.00;1.00;;;;;16.36;58.44;100766.66;5080504;27;45468;-71
2023/09/23 02:25:04;;;;;;;;;2.00;0.00;;;;;16.35;58.46;100781.66;5080694;28;45483;-72
2023/09/23 02:27:30;;;;;;;;;0.00;0.00;;;;;16.35;58.10;100772.84;5080502;27;45789;-71
2023/09/23 02:29:56;;;;;;;;;1.00;1.00;;;;;16.42;58.10;100782.38;5080261;27;45578;-72
2023/09/23 02:32:21;;;;;;;;;0.67;0.33;;;;;16.33;58.14;100770.25;5080228;27;45484;-74
2023/09/23 02:34:47;;;;;;;;;1.00;1.00;;;;;16.43;58.14;100792.94;5080224;27;45416;-72
2023/09/23 02:37:12;;;;;;;;;1.00;1.00;;;;;16.42;58.36;100793.84;5079981;27;45748;-72
2023/09/23 02:39:38;;;;;;;;;4.67;2.00;;;;;16.41;58.16;100792.09;5080775;28;45608;-70
2023/09/23 02:42:05;;;;;;;;;1.67;1.67;;;;;16.35;58.24;100789.59;5079738;27;45594;-70
2023/09/23 02:44:52;;;;;;;;;1.67;1.33;;;;;16.13;58.35;100751.28;5072843;27;44807;-72
2023/09/23 02:47:30;;;;;;;;;2.00;1.67;;;;;16.38;58.15;100805.38;5077178;28;47769;-72
2023/09/23 02:49:55;;;;;;;;;2.00;1.00;;;;;16.27;58.37;100796.78;5079696;27;45306;-70
2023/09/23 02:52:21;;;;;;;;;4.00;2.00;;;;;16.16;58.21;100773.25;5078781;27;45521;-65
2023/09/23 02:54:48;;;;;;;;;7.67;2.33;;;;;16.38;58.26;100821.25;5079531;27;45439;-65
2023/09/23 02:57:14;;;;;;;;;1.00;1.00;;;;;16.27;58.49;100796.78;5079982;28;45508;-69
2023/09/23 02:59:41;;;;;;;;;2.33;1.00;;;;;16.29;58.42;100810.84;5079058;27;45555;-72
2023/09/23 03:02:24;;;;;;;;;3.00;0.00;;;;;16.36;58.65;100820.41;5075205;27;45397;-71
2023/09/23 03:04:58;;;;;;;;;2.33;1.67;;;;;16.25;58.60;100802.13;5066178;28;45460;-71
2023/09/23 03:07:33;;;;;;;;;0.67;0.67;;;;;16.40;58.10;100816.78;5060408;28;45519;-69
2023/09/23 03:10:08;;;;;;;;;1.00;1.00;;;;;16.46;58.22;100829.88;5082343;27;45466;-73
2023/09/23 03:12:40;;;;;;;;;1.67;1.00;;;;;16.33;58.05;100807.25;5079504;27;45388;-72
2023/09/23 03:15:34;;;;;;;;;0.67;0.67;;;;;16.30;58.16;100805.53;5065146;27;45368;-73
2023/09/23 03:18:14;;;;;;;;;1.33;1.33;;;;;16.41;58.16;100831.75;5067574;27;45404;-73
2023/09/23 03:20:41;;;;;;;;;1.33;1.00;;;;;16.31;58.38;100822.28;5080780;27;45317;-70
2023/09/23 03:23:12;;;;;;;;;1.67;1.00;;;;;16.29;58.40;100839.91;5076858;27;45273;-72
2023/09/23 03:25:48;;;;;;;;;3.00;1.00;;;;;16.30;58.21;100852.22;5076601;27;45435;-72
2023/09/23 03:28:19;;;;;;;;;9.33;6.00;;;;;16.32;58.13;100847.78;5080902;27;45515;-74
2023/09/23 03:30:49;;;;;;;;;3.33;3.33;;;;;16.24;58.14;100837.38;5080102;27;45349;-72
2023/09/23 03:33:37;;;;;;;;;2.33;2.33;;;;;16.35;58.14;100860.97;5077899;27;45544;-66
2023/09/23 03:36:20;;;;;;;;;2.00;1.00;;;;;16.32;57.87;100863.63;5074134;28;45879;-73
2023/09/23 03:38:46;;;;;;;;;1.33;1.33;;;;;16.17;58.43;100850.75;4311187;27;21140008;-72
2023/09/23 03:41:17;;;;;;;;;1.00;1.00;;;;;16.10;58.45;100852.63;5081335;28;45333;-73
2023/09/23 03:43:43;;;;;;;;;1.33;1.00;;;;;16.18;58.53;100876.25;5080084;27;45474;-71
2023/09/23 03:46:16;;;;;;;;;1.00;1.00;;;;;16.16;58.28;100878.03;5078420;27;45469;-68
2023/09/23 03:48:43;;;;;;;;;0.67;0.67;;;;;16.10;58.57;100877.25;5079680;27;45516;-65
2023/09/23 03:51:09;;;;;;;;;2.67;1.00;;;;;15.90;58.87;100848.59;5079263;27;45553;-68
2023/09/23 03:53:38;;;;;;;;;1.00;0.67;;;;;15.97;58.75;100865.19;5078809;27;45448;-72
2023/09/23 03:56:08;;;;;;;;;2.33;1.00;;;;;15.99;58.90;100863.41;5078565;27;45559;-74
2023/09/23 03:58:34;;;;;;;;;1.00;1.00;;;;;16.06;58.83;100877.34;5079896;27;45417;-73
2023/09/23 04:01:13;;;;;;;;;1.00;1.00;;;;;15.98;58.74;100860.78;5078498;27;45535;-72
2023/09/23 04:03:39;;;;;;;;;3.33;1.33;;;;;15.95;59.32;100856.44;5078069;27;45420;-72
2023/09/23 04:06:05;;;;;;;;;0.00;0.00;;;;;15.94;58.90;100869.66;5077886;27;46640;-73
2023/09/23 04:08:31;;;;;;;;;1.00;1.00;;;;;15.94;59.05;100870.53;5077042;28;45407;-73
2023/09/23 04:11:03;;;;;;;;;0.00;0.00;;;;;15.94;58.96;100867.00;5078523;27;45428;-71
2023/09/23 04:13:30;;;;;;;;;0.33;0.00;;;;;15.86;58.96;100860.09;5078839;27;45480;-71
2023/09/23 04:16:03;;;;;;;;;1.00;1.00;;;;;15.93;58.94;100879.34;5078200;28;46032;-72
2023/09/23 04:18:29;;;;;;;;;0.67;0.33;;;;;16.00;58.84;100880.13;5078376;27;45755;-71
2023/09/23 04:20:55;;;;;;;;;1.67;0.67;;;;;15.96;59.01;100876.66;5078483;27;45447;-73
2023/09/23 04:23:20;;;;;;;;;0.33;0.33;;;;;15.92;58.67;100877.59;5078576;27;45392;-71
2023/09/23 04:25:48;;;;;;;;;2.33;1.00;;;;;16.01;59.02;100887.13;5073966;28;45449;-73
2023/09/23 04:28:14;;;;;;;;;1.00;0.67;;;;;16.05;58.63;100889.69;5075628;28;45242;-72
2023/09/23 04:30:39;;;;;;;;;0.00;0.00;;;;;16.05;58.79;100897.63;5078566;28;45214;-73
2023/09/23 04:33:05;;;;;;;;;0.67;0.67;;;;;16.02;59.25;100902.09;5078581;27;45301;-72
2023/09/23 04:35:30;;;;;;;;;2.00;0.00;;;;;16.04;59.04;100909.09;5078564;27;45535;-72
2023/09/23 04:37:56;;;;;;;;;0.00;0.00;;;;;16.08;58.46;100902.84;5077669;27;45488;-71
2023/09/23 04:40:21;;;;;;;;;1.67;0.00;;;;;16.11;58.44;100899.25;5077717;27;45667;-73
2023/09/23 04:42:50;;;;;;;;;0.00;0.00;;;;;16.14;58.09;100898.38;5077150;27;45332;-73
2023/09/23 04:45:17;;;;;;;;;4.67;0.67;;;;;16.17;58.17;100901.81;5066423;27;46621;-73
2023/09/23 04:47:54;;;;;;;;;2.00;0.00;;;;;16.23;57.98;100909.63;5078852;27;45430;-73
2023/09/23 04:50:23;;;;;;;;;1.67;1.00;;;;;16.14;58.36;100907.16;5077807;27;45414;-72
2023/09/23 04:52:50;;;;;;;;;2.00;0.00;;;;;16.13;58.19;100918.63;5077897;27;45761;-72
2023/09/23 04:55:16;;;;;;;;;2.00;0.33;;;;;16.03;58.23;100917.03;5078374;27;46634;-73
2023/09/23 04:57:42;;;;;;;;;0.00;0.00;;;;;16.01;58.22;100919.69;5078877;27;45491;-72
2023/09/23 05:00:10;;;;;;;;;3.00;1.00;;;;;15.85;59.10;100944.63;5078581;27;45483;-71
2023/09/23 05:02:41;;;;;;;;;0.33;0.33;;;;;15.68;59.50;100923.75;5077489;27;45477;-70
2023/09/23 05:05:09;;;;;;;;;0.00;0.00;;;;;15.58;59.42;100928.31;5075964;28;45518;-72
2023/09/23 05:07:37;;;;;;;;;0.33;0.00;;;;;15.55;58.94;100931.00;5077169;27;45491;-72
2023/09/23 05:10:05;;;;;;;;;1.33;1.33;;;;;15.56;59.68;100948.56;5077523;27;45305;-72
2023/09/23 05:12:31;;;;;;;;;1.33;1.00;;;;;15.56;59.33;100953.00;5076223;28;45446;-72
2023/09/23 05:14:57;;;;;;;;;4.67;0.33;;;;;15.43;59.42;100933.84;5075994;28;47566;-72
2023/09/23 05:17:26;;;;;;;;;1.67;0.67;;;;;15.42;60.48;100962.00;5078027;27;45354;-71
2023/09/23 05:19:52;;;;;;;;;0.67;0.00;;;;;15.38;59.89;100955.00;5077762;27;45557;-72
2023/09/23 05:22:18;;;;;;;;;1.33;0.67;;;;;15.37;59.85;100955.88;5077809;27;45396;-72
2023/09/23 05:24:48;;;;;;;;;0.00;0.00;;;;;15.25;60.30;100959.56;5077149;27;46271;-72
2023/09/23 05:27:17;;;;;;;;;0.00;0.00;;;;;15.22;60.50;100964.03;5078545;27;45295;-72
2023/09/23 05:29:44;;;;;;;;;1.00;1.00;;;;;15.26;60.59;100976.31;5078276;27;45528;-72
2023/09/23 05:32:11;;;;;;;;;1.00;1.00;;;;;15.24;60.58;100976.31;5077349;27;45594;-72
2023/09/23 05:34:39;;;;;;;;;0.00;0.00;;;;;15.16;60.48;100959.72;5077048;27;46004;-71
2023/09/23 05:37:12;;;;;;;;;0.00;0.00;;;;;15.31;60.27;100992.06;5076942;27;45432;-71
2023/09/23 05:39:45;;;;;;;;;1.00;1.00;;;;;15.07;60.97;100967.75;5092714;27;45409;-71
2023/09/23 05:42:13;;;;;;;;;0.33;0.00;;;;;14.91;61.18;100972.34;5093123;27;45563;-73
2023/09/23 05:44:42;;;;;;;;;0.00;0.00;;;;;15.00;61.09;101003.88;5068469;27;45738;-67
2023/09/23 05:47:11;;;;;;;;;2.33;0.00;;;;;15.06;61.21;101016.13;5092600;27;45426;-67
2023/09/23 05:49:38;;;;;;;;;0.00;0.00;;;;;14.66;60.69;100934.81;5076873;27;45448;-66
2023/09/23 05:52:04;;;;;;;;;1.00;1.00;;;;;15.24;60.71;101010.63;5077076;27;45530;-67
2023/09/23 05:54:31;;;;;;;;;0.00;0.00;;;;;15.37;60.48;101018.38;5077106;27;45484;-70
2023/09/23 05:56:57;;;;;;;;;0.67;0.67;;;;;15.37;60.25;101013.09;5077257;27;45503;-70
2023/09/23 05:59:22;;;;;;;;;0.00;0.00;;;;;15.48;59.92;101021.75;5077334;27;45463;-72
2023/09/23 06:01:48;;;;;;;;;2.33;1.00;;;;;15.51;59.63;101018.19;5076946;27;45741;-72
2023/09/23 06:04:13;;;;;;;;;1.00;1.00;;;;;15.64;59.34;101033.84;5076079;28;45487;-71
2023/09/23 06:06:39;;;;;;;;;2.00;0.00;;;;;15.61;59.64;101022.44;5075234;27;45500;-68
2023/09/23 06:09:06;;;;;;;;;1.67;1.00;;;;;15.73;59.28;101042.53;5076234;27;45399;-69
2023/09/23 06:11:32;;;;;;;;;1.00;0.00;;;;;15.77;59.18;101041.59;5075436;28;45683;-71
2023/09/23 06:13:58;;;;;;;;;1.33;1.00;;;;;15.81;59.07;101040.69;5076298;27;46264;-73
2023/09/23 06:16:23;;;;;;;;;1.67;1.00;;;;;15.81;58.59;101052.09;5076771;27;45283;-66
2023/09/23 06:18:49;;;;;;;;;5.67;2.00;;;;;15.88;58.87;101060.81;5076807;27;45348;-67
2023/09/23 06:21:15;;;;;;;;;3.00;1.67;;;;;15.75;58.56;101023.13;5076705;28;45370;-69
2023/09/23 06:23:41;;;;;;;;;2.67;2.33;;;;;16.05;58.39;101063.19;5092793;27;47553;-73
2023/09/23 06:26:10;;;;;;;;;1.00;1.00;;;;;16.25;57.97;101068.16;5077037;27;45472;-71
2023/09/23 06:28:36;;;;;;;;;2.00;1.67;;;;;16.52;57.00;101069.50;5075217;28;45492;-71
2023/09/23 06:31:08;;;;;;;;;4.33;2.00;;;;;16.33;57.04;101042.50;5071761;27;45599;-72
2023/09/23 06:33:33;;;;;;;;;4.00;1.00;;;;;16.44;56.67;101079.31;5074407;28;45662;-69
2023/09/23 06:36:04;;;;;;;;;3.33;2.00;;;;;16.43;57.01;101067.88;5055830;28;45442;-73
2023/09/23 06:38:30;;;;;;;;;4.33;1.67;;;;;16.45;56.74;101079.28;5061564;27;45372;-71
2023/09/23 06:40:59;;;;;;;;;3.67;1.00;;;;;16.32;57.03;101060.13;5070057;28;45469;-69
2023/09/23 06:43:26;;;;;;;;;1.00;1.00;;;;;16.52;56.88;101088.88;5080916;27;45478;-68
2023/09/23 06:45:58;;;;;;;;;1.00;1.00;;;;;16.39;56.71;101060.88;5073032;27;45566;-71
2023/09/23 06:48:25;;;;;;;;;1.67;1.00;;;;;16.61;56.56;101084.31;5066688;27;45547;-72
2023/09/23 06:51:00;;;;;;;;;1.00;1.00;;;;;16.41;56.64;101055.56;5065051;28;45436;-75
2023/09/23 06:53:27;;;;;;;;;6.67;2.00;;;;;16.69;56.55;101098.28;5074495;27;45514;-68
2023/09/23 06:55:53;;;;;;;;;1.33;1.00;;;;;16.75;56.47;101104.34;5062068;27;45432;-71
2023/09/23 06:58:19;;;;;;;;;2.67;2.00;;;;;16.58;56.78;101064.06;5059342;27;45280;-68
2023/09/23 07:00:44;;;;;;;;;5.67;2.00;;;;;16.92;57.04;101095.25;5072327;28;45566;-70
2023/09/23 07:03:10;;;;;;;;;3.00;3.00;;;;;16.91;57.10;101089.06;5064741;28;45482;-72
2023/09/23 07:05:39;;;;;;;;;4.33;2.00;;;;;16.96;56.47;101073.13;5066129;28;45286;-72
2023/09/23 07:08:08;;;;;;;;;3.00;1.33;;;;;17.28;55.82;101098.09;5091265;27;45650;-72
2023/09/23 07:10:35;;;;;;;;;3.00;3.00;;;;;17.35;54.85;101090.00;5075826;27;45546;-70
2023/09/23 07:13:03;;;;;;;;;4.33;2.00;;;;;17.62;54.91;101130.06;5079063;27;45357;-72
2023/09/23 07:15:31;;;;;;;;;1.00;1.00;;;;;17.57;54.50;101116.03;5067920;27;45397;-70
2023/09/23 07:17:58;;;;;;;;;3.00;2.00;;;;;17.68;54.08;101135.22;5063012;27;45540;-71
2023/09/23 07:20:23;;;;;;;;;4.00;3.00;;;;;17.43;54.13;101094.25;5097149;27;45520;-72
2023/09/23 07:22:49;;;;;;;;;1.00;1.00;;;;;17.59;54.05;101124.81;5064076;27;46164;-72
2023/09/23 07:25:15;;;;;;;;;1.33;1.33;;;;;17.67;53.69;101148.50;5078660;27;45330;-72
2023/09/23 07:27:41;;;;;;;;;2.67;1.00;;;;;16.97;53.69;101029.03;5085952;27;45587;-71
2023/09/23 07:30:08;;;;;;;;;2.33;1.00;;;;;17.74;53.58;101148.31;5075384;28;45380;-72
2023/09/23 07:32:34;;;;;;;;;6.00;2.00;;;;;17.63;53.40;101130.91;5076845;28;47074;-71
2023/09/23 07:34:59;;;;;;;;;1.67;1.00;;;;;17.72;53.59;101151.91;5075859;27;45427;-72
2023/09/23 07:37:25;;;;;;;;;2.00;1.33;;;;;17.65;54.02;101140.56;5071137;27;45464;-74
2023/09/23 07:39:51;;;;;;;;;2.33;2.00;;;;;17.83;53.57;101170.28;5076062;27;45642;-68
2023/09/23 07:42:16;;;;;;;;;2.00;1.00;;;;;17.69;53.84;101149.34;5074567;27;46551;-72
2023/09/23 07:44:42;;;;;;;;;1.67;1.67;;;;;17.66;53.87;101144.97;5076714;27;45508;-72
2023/09/23 07:47:07;;;;;;;;;2.00;2.00;;;;;17.84;53.16;101178.19;5077234;27;45270;-70
2023/09/23 07:49:35;;;;;;;;;4.00;2.00;;;;;17.88;53.67;101179.88;5078624;27;45380;-73
2023/09/23 07:52:02;;;;;;;;;5.00;2.00;;;;;17.85;53.30;101168.47;5078556;27;45494;-72
2023/09/23 07:54:27;;;;;;;;;3.00;1.33;;;;;17.37;52.96;101061.72;5079980;27;45438;-71
2023/09/23 07:56:53;;;;;;;;;3.00;1.00;;;;;18.13;52.91;101195.25;5076917;27;45837;-71
2023/09/23 07:59:18;;;;;;;;;3.33;1.67;;;;;18.22;52.65;101195.03;5079081;27;45455;-71
2023/09/23 08:01:44;;;;;;;;;1.00;1.00;;;;;18.27;52.33;101200.22;5077592;27;45543;-73
2023/09/23 08:04:22;;;;;;;;;5.33;2.00;;;;;18.34;52.14;101196.53;5073964;28;45315;-73
2023/09/23 08:06:48;;;;;;;;;4.67;3.33;;;;;18.39;52.12;101187.59;5074859;27;45567;-72
2023/09/23 08:09:19;;;;;;;;;5.00;2.00;;;;;18.59;52.14;101210.97;5074570;27;45681;-73
2023/09/23 08:11:45;;;;;;;;;3.33;2.00;;;;;18.61;51.61;101195.03;5078051;27;45391;-74
2023/09/23 08:14:21;;;;;;;;;3.00;3.00;;;;;18.76;51.10;101228.28;5079105;27;45422;-72
2023/09/23 08:16:50;;;;;;;;;2.33;2.33;;;;;18.77;51.30;101219.44;5091090;27;45354;-73
2023/09/23 08:19:16;;;;;;;;;4.00;2.00;;;;;18.86;50.90;101213.91;5071180;27;46597;-71
2023/09/23 08:21:42;;;;;;;;;2.33;2.33;;;;;19.03;50.52;101243.56;5076566;27;46668;-70
2023/09/23 08:24:07;;;;;;;;;2.67;2.67;;;;;19.04;50.54;101240.00;5071690;27;45408;-72
2023/09/23 08:26:46;;;;;;;;;4.33;3.33;;;;;18.82;50.03;101213.13;5077978;27;45391;-73
2023/09/23 08:29:11;;;;;;;;;3.00;3.00;;;;;19.00;50.49;101246.28;5078294;27;45512;-72
2023/09/23 08:31:38;;;;;;;;;3.33;2.00;;;;;19.06;50.63;101254.09;5073278;27;45391;-72
2023/09/23 08:34:09;;;;;;;;;2.00;2.00;;;;;19.23;50.00;101260.78;5069703;27;45424;-71
2023/09/23 08:36:37;;;;;;;;;3.33;3.00;;;;;19.42;50.19;101264.69;5078974;27;45415;-72
2023/09/23 08:39:08;;;;;;;;;5.00;2.00;;;;;19.49;48.97;101262.75;5074813;27;45558;-71
2023/09/23 08:41:35;;;;;;;;;3.00;3.00;;;;;19.52;49.33;101262.66;5077612;27;45489;-69
2023/09/23 08:44:04;;;;;;;;;7.33;3.67;;;;;19.64;49.07;101269.44;5078877;27;45496;-72
2023/09/23 08:46:31;;;;;;;;;5.00;4.67;;;;;19.69;48.96;101279.06;5076977;27;45549;-70
2023/09/23 08:48:59;;;;;;;;;3.67;3.00;;;;;19.73;48.57;101278.97;5075588;27;45512;-73
2023/09/23 08:51:27;;;;;;;;;4.33;3.00;;;;;19.69;48.78;101283.50;5072016;28;45883;-71
2023/09/23 08:53:53;;;;;;;;;4.00;2.00;;;;;19.43;48.38;101246.97;5079044;27;45250;-72
2023/09/23 08:56:20;;;;;;;;;3.00;1.67;;;;;19.70;48.53;101288.78;5079416;27;45433;-71
2023/09/23 08:58:48;;;;;;;;;1.33;1.33;;;;;19.64;48.65;101264.09;5077959;27;45473;-72
2023/09/23 09:01:15;;;;;;;;;2.00;2.00;;;;;19.84;48.36;101287.53;5077461;27;45417;-72
2023/09/23 09:03:44;;;;;;;;;1.00;1.00;;;;;19.60;48.03;101243.84;5068784;27;45559;-71
2023/09/23 09:06:21;;;;;;;;;2.00;2.00;;;;;19.70;47.86;101248.03;5062940;28;45439;-73
2023/09/23 09:08:47;;;;;;;;;4.00;1.33;;;;;20.00;47.27;101266.69;5070754;28;46531;-70
2023/09/23 09:11:23;;;;;;;;;1.67;1.00;;;;;19.77;47.23;101223.03;5077284;27;46502;-71
2023/09/23 09:13:49;;;;;;;;;2.33;2.33;;;;;20.16;46.93;101297.25;5077229;28;45346;-70
2023/09/23 09:16:15;;;;;;;;;3.00;2.67;;;;;20.27;47.09;101303.13;5078289;28;45418;-71
2023/09/23 09:18:42;;;;;;;;;4.00;2.00;;;;;20.38;47.07;101305.44;5078187;27;45594;-73
2023/09/23 09:21:08;;;;;;;;;5.33;3.33;;;;;20.37;46.77;101309.03;5083942;27;46601;-71
2023/09/23 09:23:36;;;;;;;;;5.00;3.00;;;;;20.38;46.34;101305.44;5094069;27;45708;-70
2023/09/23 09:26:02;;;;;;;;;7.00;4.00;;;;;20.30;46.57;101291.53;5078485;27;45350;-71
2023/09/23 09:28:30;;;;;;;;;5.67;2.67;;;;;20.57;46.86;101299.63;5076437;27;45514;-71
2023/09/23 09:30:56;;;;;;;;;2.00;2.00;;;;;20.62;46.08;101282.63;5077178;27;46625;-70
2023/09/23 09:33:26;;;;;;;;;2.00;1.67;;;;;20.67;45.94;101274.47;5077864;27;45465;-71
2023/09/23 09:35:56;;;;;;;;;2.33;2.00;;;;;20.78;46.07;101290.09;5075590;27;46019;-70
2023/09/23 09:38:25;;;;;;;;;4.67;3.00;;;;;20.81;45.96;101298.88;5069660;27;45480;-70
2023/09/23 09:41:00;;;;;;;;;2.00;1.33;;;;;20.83;45.90;101298.81;5069159;28;45697;-71
2023/09/23 09:43:27;;;;;;;;;4.33;1.00;;;;;20.74;45.97;101276.03;5076531;28;45493;-71
2023/09/23 09:45:59;;;;;;;;;2.00;2.00;;;;;20.82;45.65;101291.75;5076468;28;45481;-70
2023/09/23 09:48:30;;;;;;;;;1.33;1.33;;;;;20.82;45.57;101289.09;5075048;27;45576;-71
2023/09/23 09:50:56;;;;;;;;;1.00;1.00;;;;;20.72;45.75;101265.41;5075039;27;46304;-68
2023/09/23 09:53:23;;;;;;;;;2.67;2.00;;;;;20.99;45.46;101301.84;5075531;27;45479;-71
2023/09/23 09:55:50;;;;;;;;;2.00;2.00;;;;;21.01;45.03;101298.22;5076931;27;45544;-69
2023/09/23 09:58:16;;;;;;;;;1.00;1.00;;;;;21.05;45.58;101299.88;5077704;27;45427;-70
2023/09/23 10:00:43;;;;;;;;;1.00;1.00;;;;;21.14;45.45;101304.91;5077634;27;45567;-69
2023/09/23 10:03:11;;;;;;;;;1.67;1.33;;;;;21.35;45.04;101305.09;5074296;28;45443;-69
2023/09/23 10:05:50;;;;;;;;;1.00;1.00;;;;;21.65;45.00;101300.53;5072278;27;45419;-69
2023/09/23 10:08:24;;;;;;;;;3.33;1.00;;;;;22.03;44.63;101311.63;5076669;27;45898;-69
2023/09/23 10:10:51;;;;;;;;;3.33;1.67;;;;;22.36;43.76;101311.34;5076590;27;46675;-68
2023/09/23 10:13:19;;;;;;;;;5.00;2.67;;;;;22.37;43.72;101289.03;5068037;27;45559;-71
2023/09/23 10:15:45;;;;;;;;;0.75;0.75;;;;;22.61;42.91;101306.78;5074118;27;45514;-68
2023/09/23 10:18:13;;;;;;;;;2.50;2.50;;;;;22.57;42.79;101320.31;5073480;27;45512;-72
2023/09/23 10:20:50;;;;;;;;;1.00;1.00;;;;;22.55;42.66;101314.16;5074362;28;46478;-69
2023/09/23 10:23:20;;;;;;;;;2.00;2.00;;;;;22.62;43.01;101315.66;5072946;28;45396;-69
2023/09/23 10:25:48;;;;;;;;;0.75;0.25;;;;;22.71;41.22;101304.63;5068463;28;45477;-70
2023/09/23 10:28:26;;;;;;;;;2.75;2.00;;;;;23.07;41.77;101321.00;5074424;27;45352;-71
2023/09/23 10:31:04;;;;;;;;;3.25;1.75;;;;;23.36;40.84;101326.94;5070855;28;46248;-70
2023/09/23 10:33:31;;;;;;;;;2.00;2.00;;;;;23.49;38.59;101327.28;5073466;28;45488;-68
2023/09/23 10:35:58;;;;;;;;;1.25;1.25;;;;;23.46;40.05;101324.75;5072517;28;45445;-69
2023/09/23 10:38:27;;;;;;;;;1.50;1.00;;;;;23.67;39.94;101331.84;5073603;28;45492;-72
2023/09/23 10:40:54;;;;;;;;;2.00;2.00;;;;;23.65;39.38;101336.38;5089610;27;46918;-69
2023/09/23 10:43:24;;;;;;;;;3.25;2.00;;;;;23.53;39.15;101318.19;5076934;27;45380;-74
2023/09/23 10:45:52;;;;;;;;;7.50;5.00;;;;;23.64;39.44;101334.66;5079246;27;45514;-70
2023/09/23 10:48:18;;;;;;;;;4.00;3.00;;;;;23.54;39.02;101332.44;5076242;27;45542;-72
2023/09/23 10:50:44;;;;;;;;;3.00;2.25;;;;;23.57;39.52;101337.66;5079811;27;45915;-74
2023/09/23 10:53:14;;;;;;;;;4.00;3.25;;;;;23.70;39.64;101342.41;5076876;27;45516;-71
2023/09/23 10:55:40;;;;;;;;;2.25;2.25;;;;;23.83;38.86;101348.13;5077543;27;45474;-72
2023/09/23 10:58:09;;;;;;;;;3.00;3.00;;;;;24.02;39.10;101345.50;5078101;27;45529;-70
2023/09/23 11:00:38;;;;;;;;;2.00;2.00;;;;;24.23;38.30;101342.81;5078489;27;45430;-77
2023/09/23 11:03:09;;;;;;;;;4.50;3.00;;;;;24.25;38.01;101336.47;5078119;27;45293;-70
2023/09/23 11:05:43;;;;;;;;;6.50;3.00;;;;;24.49;37.40;101334.47;5073029;28;45415;-78
2023/09/23 11:08:10;;;;;;;;;2.50;2.50;;;;;24.60;38.16;101343.81;5077464;28;45379;-74
2023/09/23 11:10:42;;;;;;;;;3.75;2.25;;;;;24.91;37.07;101332.50;5077221;28;45541;-74
2023/09/23 11:13:10;;;;;;;;;3.00;2.50;;;;;25.37;36.01;101324.91;5075927;28;45525;-74
2023/09/23 11:15:38;;;;;;;;;2.50;2.50;;;;;25.17;36.06;101345.50;5076251;28;45795;-73
2023/09/23 11:18:07;;;;;;;;;4.00;2.75;;;;;25.31;35.84;101352.88;5074257;28;45550;-76
2023/09/23 11:20:37;;;;;;;;;3.25;3.25;;;;;25.77;34.76;101355.06;5077928;28;46004;-77
2023/09/23 11:23:05;;;;;;;;;2.20;2.20;;;;;26.62;33.66;101346.94;5077513;28;45546;-73
2023/09/23 11:25:35;;;;;;;;;4.50;3.25;;;;;27.39;32.66;101334.50;5077037;28;45294;-78
2023/09/23 11:28:00;;;;;;;;;9.50;6.75;;;;;28.24;30.97;101353.63;5078113;28;45443;-75
2023/09/23 11:30:26;;;;;;;;;4.00;4.00;;;;;27.25;32.27;101347.88;5075585;27;46621;-77